Atkinson, North Carolina
Current Conditions -  °F | °C
As of 8:53 AM on Thursday 27 Nov 2014 (Local Time) from KILM Reporting Station
Few Clouds Few Clouds  
Wind Chill: 44°   Ceiling: Unl
Heat Index: 49°   Visibility: 10mi
Dew Point: 39°   Wind: 13mph
Humidity: 69%   Direction: 230°SW
Pressure: 30.05"   Gusts: NA
Location:  34.53°N, 78.17°W
Report Text: KILM 271353Z 23011KT 10SM FEW070 FEW085 09/04 A3005 RMK AO2 SLP174 T00940039
Loading
Personal Weather Stations






























Interactive Weather Map New forecast layout! Learn more

10-Day Weather Forecast

Advertisements
Track Severe Weather on mobile